Prerov, Czech Republic
Current Conditions -  °F | °C
As of 5:00 PM on Tuesday 21 Oct 2014 (Local Time) from LKKU Reporting Station
Few Clouds Few Clouds  
Wind Chill: 59°   Ceiling: Unl
Heat Index: 59°   Visibility: 6mi
Dew Point: 50°   Wind: 7mph
Humidity: 72%   Direction: 210°SSW
Pressure: 29.77"   Gusts: NA
Location:  49.46°N, 17.45°E
Report Text: LKKU 211500Z 21006KT 9999 FEW045 15/10 Q1008 RMK REG QNH 1000
Loading
Personal Weather Stations






























Interactive Weather Map
Tropical Storm Tracking
New forecast layout! Learn more

10-Day Weather Forecast

Advertisements
Track Severe Weather on mobile